Time,TemperatureF,DewpointF,PressureIn,WindDirection,WindDirectionDegrees,WindSpeedMPH,WindSpeedGustMPH,Humidity,HourlyPrecipIn,Conditions,Clouds,dailyrainin,SoftwareType,DateUTC
2013-01-24 00:00:00,50.7,31.2,30.04,SSE,162,2.0,5.0,47,0.00,,,0.00,Wunderground v.1.13,2013-01-24 08:00:00,
2013-01-24 00:05:00,50.2,32.3,30.04,SSW,202,3.0,5.0,50,0.00,,,0.00,Wunderground v.1.13,2013-01-24 08:05:00,
2013-01-24 00:10:00,49.9,32.0,30.04,South,182,3.0,3.0,50,0.00,,,0.00,Wunderground v.1.13,2013-01-24 08:10:00,
2013-01-24 00:16:00,49.9,31.5,30.02,SW,222,3.0,6.0,49,0.00,,,0.00,Wunderground v.1.13,2013-01-24 08:16:00,
2013-01-24 00:22:00,49.9,31.0,30.02,SSW,195,3.0,3.0,48,0.00,,,0.00,Wunderground v.1.13,2013-01-24 08:22:00,
2013-01-24 00:28:00,50.1,30.1,30.02,SSW,195,2.0,2.0,46,0.00,,,0.00,Wunderground v.1.13,2013-01-24 08:28:00,
2013-01-24 00:34:00,50.2,29.1,30.02,SSW,195,1.0,1.0,44,0.00,,,0.00,Wunderground v.1.13,2013-01-24 08:34:00,
2013-01-24 00:40:00,50.4,28.7,30.02,SSW,196,1.0,2.0,43,0.00,,,0.00,Wunderground v.1.13,2013-01-24 08:40:00,
2013-01-24 00:45:00,50.5,29.4,30.02,SSW,198,1.0,2.0,44,0.00,,,0.00,Wunderground v.1.13,2013-01-24 08:45:00,
2013-01-24 00:51:00,50.5,29.9,30.02,SSW,198,1.0,2.0,45,0.00,,,0.00,Wunderground v.1.13,2013-01-24 08:51:00,
2013-01-24 00:57:00,50.5,31.0,30.02,SSW,198,1.0,1.0,47,0.00,,,0.00,Wunderground v.1.13,2013-01-24 08:57:00,
2013-01-24 01:03:00,50.4,32.4,30.02,SSW,198,1.0,6.0,50,0.00,,,0.00,Wunderground v.1.13,2013-01-24 09:03:00,
2013-01-24 01:08:00,50.2,33.2,30.02,SSW,199,0.0,2.0,52,0.00,,,0.00,Wunderground v.1.13,2013-01-24 09:08:00,
2013-01-24 01:14:00,50.1,34.5,30.02,SSW,200,0.0,3.0,55,0.00,,,0.00,Wunderground v.1.13,2013-01-24 09:14:00,
2013-01-24 01:20:00,49.8,34.7,30.01,SSW,199,1.0,1.0,56,0.00,,,0.00,Wunderground v.1.13,2013-01-24 09:20:00,
2013-01-24 01:26:00,49.6,35.0,30.01,SSW,199,0.0,2.0,57,0.00,,,0.00,Wunderground v.1.13,2013-01-24 09:26:00,
2013-01-24 01:32:00,49.5,35.8,30.02,SSW,200,0.0,0.0,59,0.00,,,0.00,Wunderground v.1.13,2013-01-24 09:32:00,
2013-01-24 01:38:00,49.4,35.7,30.02,SSW,200,0.0,1.0,59,0.00,,,0.00,Wunderground v.1.13,2013-01-24 09:38:00,
2013-01-24 01:44:00,49.2,35.9,30.02,SSW,199,0.0,1.0,60,0.00,,,0.00,Wunderground v.1.13,2013-01-24 09:44:00,
2013-01-24 01:50:00,49.2,35.0,30.02,SSW,199,0.0,1.0,58,0.00,,,0.00,Wunderground v.1.13,2013-01-24 09:50:00,
2013-01-24 01:55:00,49.2,35.9,30.02,SSW,199,0.0,0.0,60,0.00,,,0.00,Wunderground v.1.13,2013-01-24 09:55:00,
2013-01-24 02:00:00,49.2,34.6,30.02,SSW,200,0.0,2.0,57,0.00,,,0.00,Wunderground v.1.13,2013-01-24 10:00:00,
2013-01-24 02:06:00,49.2,35.0,30.02,SW,215,0.0,3.0,58,0.00,,,0.00,Wunderground v.1.13,2013-01-24 10:06:00,
2013-01-24 02:11:00,49.2,36.3,30.02,WSW,241,0.0,2.0,61,0.00,,,0.00,Wunderground v.1.13,2013-01-24 10:11:00,
2013-01-24 02:16:00,49.1,37.8,30.02,WSW,240,1.0,2.0,65,0.00,,,0.01,Wunderground v.1.13,2013-01-24 10:16:00,
2013-01-24 02:21:00,48.8,37.9,30.02,West,280,1.0,2.0,66,0.00,,,0.01,Wunderground v.1.13,2013-01-24 10:21:00,
2013-01-24 02:26:00,48.5,38.0,30.02,West,280,1.0,3.0,67,0.00,,,0.01,Wunderground v.1.13,2013-01-24 10:26:00,
2013-01-24 02:32:00,48.2,38.9,30.02,West,280,0.0,0.0,70,0.00,,,0.01,Wunderground v.1.13,2013-01-24 10:32:00,
2013-01-24 02:38:00,47.7,39.5,30.02,West,278,0.0,1.0,73,0.00,,,0.02,Wunderground v.1.13,2013-01-24 10:38:00,
2013-01-24 02:44:00,47.4,39.5,30.02,West,278,0.0,2.0,74,0.00,,,0.02,Wunderground v.1.13,2013-01-24 10:44:00,
2013-01-24 02:50:00,47.3,39.8,30.02,West,278,1.0,2.0,75,0.00,,,0.02,Wunderground v.1.13,2013-01-24 10:50:00,
2013-01-24 02:56:00,47.3,39.8,30.02,West,280,1.0,3.0,75,0.00,,,0.02,Wunderground v.1.13,2013-01-24 10:56:00,
2013-01-24 03:02:00,47.3,40.1,30.02,West,280,1.0,1.0,76,0.00,,,0.02,Wunderground v.1.13,2013-01-24 11:02:00,
2013-01-24 03:07:00,47.3,39.8,30.02,West,280,1.0,1.0,75,0.00,,,0.02,Wunderground v.1.13,2013-01-24 11:07:00,
2013-01-24 03:13:00,47.3,39.8,30.02,West,280,1.0,1.0,75,0.00,,,0.02,Wunderground v.1.13,2013-01-24 11:13:00,
2013-01-24 03:19:00,47.3,39.4,30.01,West,280,1.0,1.0,74,0.00,,,0.02,Wunderground v.1.13,2013-01-24 11:19:00,
2013-01-24 03:24:00,47.4,40.2,30.01,West,280,0.0,1.0,76,0.00,,,0.02,Wunderground v.1.13,2013-01-24 11:24:00,
2013-01-24 03:30:00,47.6,40.4,30.02,West,280,0.0,1.0,76,0.00,,,0.02,Wunderground v.1.13,2013-01-24 11:30:00,
2013-01-24 03:36:00,47.6,41.1,30.02,West,280,1.0,3.0,78,0.00,,,0.02,Wunderground v.1.13,2013-01-24 11:36:00,
2013-01-24 03:42:00,47.7,41.5,30.02,West,280,1.0,2.0,79,0.00,,,0.02,Wunderground v.1.13,2013-01-24 11:42:00,
2013-01-24 03:48:00,47.7,41.8,30.00,SE,133,1.0,1.0,80,0.00,,,0.02,Wunderground v.1.13,2013-01-24 11:48:00,
2013-01-24 03:54:00,47.9,42.3,30.00,South,169,1.0,2.0,81,0.00,,,0.02,Wunderground v.1.13,2013-01-24 11:54:00,
2013-01-24 04:00:00,48.5,42.6,30.00,South,169,1.0,1.0,80,0.00,,,0.02,Wunderground v.1.13,2013-01-24 12:00:00,
2013-01-24 04:05:00,48.8,42.9,30.00,South,169,0.0,4.0,80,0.00,,,0.02,Wunderground v.1.13,2013-01-24 12:05:00,
2013-01-24 04:11:00,48.9,43.0,30.00,South,169,0.0,1.0,80,0.00,,,0.02,Wunderground v.1.13,2013-01-24 12:11:00,
2013-01-24 04:16:00,48.9,43.0,30.01,SSE,147,1.0,6.0,80,0.00,,,0.02,Wunderground v.1.13,2013-01-24 12:16:00,
2013-01-24 04:22:00,48.5,42.9,30.01,SE,140,2.0,2.0,81,0.00,,,0.02,Wunderground v.1.13,2013-01-24 12:22:00,
2013-01-24 04:28:00,48.0,42.4,30.01,SE,140,2.0,2.0,81,0.00,,,0.02,Wunderground v.1.13,2013-01-24 12:28:00,
2013-01-24 04:33:00,47.7,42.5,30.02,SE,140,1.0,1.0,82,0.00,,,0.02,Wunderground v.1.13,2013-01-24 12:33:00,
2013-01-24 04:39:00,47.6,43.0,30.02,SE,140,0.0,0.0,84,0.00,,,0.02,Wunderground v.1.13,2013-01-24 12:39:00,
2013-01-24 04:45:00,47.4,43.1,30.03,SE,140,0.0,1.0,85,0.00,,,0.03,Wunderground v.1.13,2013-01-24 12:45:00,
2013-01-24 04:51:00,47.3,43.0,30.03,SE,140,0.0,0.0,85,0.00,,,0.03,Wunderground v.1.13,2013-01-24 12:51:00,
2013-01-24 04:56:00,47.3,43.6,30.03,SE,143,0.0,2.0,87,0.00,,,0.03,Wunderground v.1.13,2013-01-24 12:56:00,
2013-01-24 05:02:00,47.3,43.6,30.03,SE,144,0.0,1.0,87,0.00,,,0.03,Wunderground v.1.13,2013-01-24 13:02:00,
2013-01-24 05:07:00,47.3,43.9,30.03,SSE,154,1.0,1.0,88,0.00,,,0.04,Wunderground v.1.13,2013-01-24 13:07:00,
2013-01-24 05:13:00,47.4,44.0,30.03,SSE,157,1.0,2.0,88,0.00,,,0.04,Wunderground v.1.13,2013-01-24 13:13:00,
2013-01-24 05:18:00,47.4,44.3,30.03,SSW,199,1.0,1.0,89,0.00,,,0.04,Wunderground v.1.13,2013-01-24 13:18:00,
2013-01-24 05:24:00,47.4,44.3,30.03,SSW,199,1.0,2.0,89,0.00,,,0.04,Wunderground v.1.13,2013-01-24 13:24:00,
2013-01-24 05:30:00,47.3,44.2,30.03,SSW,199,1.0,2.0,89,0.00,,,0.04,Wunderground v.1.13,2013-01-24 13:30:00,
2013-01-24 05:36:00,47.3,44.2,30.03,SSW,199,1.0,1.0,89,0.00,,,0.04,Wunderground v.1.13,2013-01-24 13:36:00,
2013-01-24 05:42:00,47.1,44.3,30.03,WSW,253,1.0,2.0,90,0.00,,,0.05,Wunderground v.1.13,2013-01-24 13:42:00,
2013-01-24 05:47:00,47.1,44.3,30.03,WSW,253,1.0,3.0,90,0.00,,,0.05,Wunderground v.1.13,2013-01-24 13:47:00,
2013-01-24 05:53:00,47.1,44.3,30.03,WSW,251,1.0,1.0,90,0.00,,,0.05,Wunderground v.1.13,2013-01-24 13:53:00,
2013-01-24 05:59:00,47.1,44.3,30.03,WSW,251,1.0,1.0,90,0.00,,,0.05,Wunderground v.1.13,2013-01-24 13:59:00,
2013-01-24 06:04:00,47.1,44.6,30.04,WSW,251,1.0,2.0,91,0.00,,,0.05,Wunderground v.1.13,2013-01-24 14:04:00,
2013-01-24 06:10:00,47.1,44.6,30.04,WSW,251,1.0,1.0,91,0.00,,,0.05,Wunderground v.1.13,2013-01-24 14:10:00,
2013-01-24 06:16:00,47.1,44.6,30.05,WSW,251,1.0,1.0,91,0.00,,,0.05,Wunderground v.1.13,2013-01-24 14:16:00,
2013-01-24 06:21:00,47.1,44.6,30.05,WSW,251,0.0,2.0,91,0.00,,,0.05,Wunderground v.1.13,2013-01-24 14:21:00,
2013-01-24 06:27:00,47.1,44.6,30.05,WSW,251,0.0,1.0,91,0.00,,,0.05,Wunderground v.1.13,2013-01-24 14:27:00,
2013-01-24 06:33:00,47.1,44.6,30.06,WSW,251,0.0,0.0,91,0.00,,,0.05,Wunderground v.1.13,2013-01-24 14:33:00,
2013-01-24 06:39:00,47.1,44.6,30.06,WSW,251,0.0,0.0,91,0.00,,,0.05,Wunderground v.1.13,2013-01-24 14:39:00,
2013-01-24 06:44:00,47.1,44.9,30.06,WSW,251,0.0,0.0,92,0.00,,,0.05,Wunderground v.1.13,2013-01-24 14:44:00,
2013-01-24 06:50:00,47.0,44.8,30.06,WSW,251,0.0,0.0,92,0.00,,,0.05,Wunderground v.1.13,2013-01-24 14:50:00,
2013-01-24 06:56:00,47.0,44.8,30.06,WSW,251,0.0,0.0,92,0.00,,,0.05,Wunderground v.1.13,2013-01-24 14:56:00,
2013-01-24 07:02:00,47.0,44.8,30.06,WSW,251,0.0,0.0,92,0.00,,,0.05,Wunderground v.1.13,2013-01-24 15:02:00,
2013-01-24 07:07:00,47.0,44.8,30.06,WSW,251,0.0,0.0,92,0.00,,,0.05,Wunderground v.1.13,2013-01-24 15:07:00,
2013-01-24 07:13:00,47.0,44.8,30.06,WSW,251,0.0,0.0,92,0.00,,,0.05,Wunderground v.1.13,2013-01-24 15:13:00,
2013-01-24 07:18:00,47.0,44.8,30.07,WSW,251,0.0,0.0,92,0.00,,,0.05,Wunderground v.1.13,2013-01-24 15:18:00,
2013-01-24 07:24:00,47.0,44.8,30.07,WSW,251,0.0,0.0,92,0.00,,,0.05,Wunderground v.1.13,2013-01-24 15:24:00,
2013-01-24 07:30:00,47.1,44.9,30.07,WSW,251,0.0,0.0,92,0.00,,,0.05,Wunderground v.1.13,2013-01-24 15:30:00,
2013-01-24 07:36:00,47.1,44.9,30.07,WSW,251,0.0,0.0,92,0.00,,,0.05,Wunderground v.1.13,2013-01-24 15:36:00,
2013-01-24 07:42:00,47.1,44.9,30.07,WSW,251,0.0,0.0,92,0.00,,,0.05,Wunderground v.1.13,2013-01-24 15:42:00,
2013-01-24 07:47:00,47.3,45.1,30.07,WSW,251,0.0,0.0,92,0.00,,,0.05,Wunderground v.1.13,2013-01-24 15:47:00,
2013-01-24 07:53:00,47.4,45.2,30.07,WSW,251,1.0,1.0,92,0.00,,,0.05,Wunderground v.1.13,2013-01-24 15:53:00,
2013-01-24 07:59:00,47.6,45.7,30.07,SW,232,1.0,2.0,93,0.00,,,0.05,Wunderground v.1.13,2013-01-24 15:59:00,
2013-01-24 08:05:00,47.7,45.8,30.09,SW,226,2.0,2.0,93,0.00,,,0.05,Wunderground v.1.13,2013-01-24 16:05:00,
2013-01-24 08:10:00,47.9,46.0,30.09,SW,215,2.0,3.0,93,0.00,,,0.05,Wunderground v.1.13,2013-01-24 16:10:00,
2013-01-24 08:16:00,48.0,46.1,30.10,WSW,240,3.0,4.0,93,0.00,,,0.06,Wunderground v.1.13,2013-01-24 16:16:00,
2013-01-24 08:21:00,48.2,46.3,30.10,WSW,253,2.0,3.0,93,0.00,,,0.06,Wunderground v.1.13,2013-01-24 16:21:00,
2013-01-24 08:27:00,48.2,46.3,30.10,WSW,247,2.0,2.0,93,0.06,,,0.07,Wunderground v.1.13,2013-01-24 16:27:00,
2013-01-24 08:33:00,48.2,46.3,30.11,WSW,246,2.0,3.0,93,0.06,,,0.07,Wunderground v.1.13,2013-01-24 16:33:00,
2013-01-24 08:39:00,48.3,46.4,30.11,WSW,239,3.0,6.0,93,0.05,,,0.07,Wunderground v.1.13,2013-01-24 16:39:00,
2013-01-24 08:45:00,48.3,46.4,30.12,West,267,3.0,3.0,93,0.04,,,0.08,Wunderground v.1.13,2013-01-24 16:45:00,
2013-01-24 08:50:00,48.3,46.4,30.12,West,261,1.0,4.0,93,0.08,,,0.09,Wunderground v.1.13,2013-01-24 16:50:00,
2013-01-24 08:56:00,48.5,46.6,30.12,West,261,1.0,3.0,93,0.07,,,0.09,Wunderground v.1.13,2013-01-24 16:56:00,
2013-01-24 09:02:00,48.6,46.7,30.12,West,261,1.0,1.0,93,0.04,,,0.09,Wunderground v.1.13,2013-01-24 17:02:00,
2013-01-24 09:07:00,48.6,46.7,30.12,West,261,0.0,0.0,93,0.04,,,0.10,Wunderground v.1.13,2013-01-24 17:07:00,
2013-01-24 09:13:00,48.8,46.9,30.12,West,261,0.0,0.0,93,0.04,,,0.10,Wunderground v.1.13,2013-01-24 17:13:00,
2013-01-24 09:19:00,48.9,47.0,30.11,West,261,0.0,0.0,93,0.04,,,0.10,Wunderground v.1.13,2013-01-24 17:19:00,
2013-01-24 09:24:00,48.9,47.0,30.11,NW,320,0.0,1.0,93,0.00,,,0.11,Wunderground v.1.13,2013-01-24 17:24:00,
2013-01-24 09:30:00,48.8,46.9,30.10,NNE,23,2.0,6.0,93,0.00,,,0.11,Wunderground v.1.13,2013-01-24 17:30:00,
2013-01-24 09:36:00,48.8,46.9,30.10,NE,34,2.0,3.0,93,0.04,,,0.12,Wunderground v.1.13,2013-01-24 17:36:00,
2013-01-24 09:42:00,48.9,47.0,30.10,WNW,288,1.0,1.0,93,0.04,,,0.12,Wunderground v.1.13,2013-01-24 17:42:00,
2013-01-24 09:47:00,49.1,47.2,30.13,WNW,288,0.0,0.0,93,0.04,,,0.12,Wunderground v.1.13,2013-01-24 17:47:00,
2013-01-24 09:53:00,49.2,47.3,30.13,WNW,288,0.0,1.0,93,0.00,,,0.12,Wunderground v.1.13,2013-01-24 17:53:00,
2013-01-24 09:59:00,49.4,47.5,30.13,SW,234,1.0,3.0,93,0.00,,,0.12,Wunderground v.1.13,2013-01-24 17:59:00,
2013-01-24 10:05:00,49.4,47.5,30.14,SW,236,2.0,4.0,93,0.00,,,0.12,Wunderground v.1.13,2013-01-24 18:05:00,
2013-01-24 10:10:00,49.4,47.5,30.14,SW,236,1.0,2.0,93,0.00,,,0.12,Wunderground v.1.13,2013-01-24 18:10:00,
2013-01-24 10:16:00,49.4,47.2,30.11,NNE,13,1.0,5.0,92,0.00,,,0.12,Wunderground v.1.13,2013-01-24 18:16:00,
2013-01-24 10:22:00,49.5,47.3,30.11,NNE,31,1.0,1.0,92,0.00,,,0.12,Wunderground v.1.13,2013-01-24 18:22:00,
2013-01-24 10:28:00,49.6,47.4,30.11,NNE,31,0.0,1.0,92,0.00,,,0.12,Wunderground v.1.13,2013-01-24 18:28:00,
2013-01-24 10:33:00,49.9,47.7,30.14,NNE,23,0.0,0.0,92,0.00,,,0.13,Wunderground v.1.13,2013-01-24 18:33:00,
2013-01-24 10:39:00,50.1,47.9,30.14,NNE,20,0.0,0.0,92,0.00,,,0.13,Wunderground v.1.13,2013-01-24 18:39:00,
2013-01-24 10:45:00,50.2,48.3,30.14,NNE,20,0.0,0.0,93,0.00,,,0.13,Wunderground v.1.13,2013-01-24 18:45:00,
2013-01-24 10:51:00,50.2,48.0,30.14,NNE,30,0.0,2.0,92,0.00,,,0.13,Wunderground v.1.13,2013-01-24 18:51:00,
2013-01-24 10:56:00,50.4,48.2,30.14,NNE,25,0.0,0.0,92,0.00,,,0.13,Wunderground v.1.13,2013-01-24 18:56:00,
2013-01-24 11:02:00,50.7,48.5,30.13,NNE,24,0.0,0.0,92,0.00,,,0.13,Wunderground v.1.13,2013-01-24 19:02:00,
2013-01-24 11:07:00,51.0,48.8,30.13,North,4,0.0,0.0,92,0.00,,,0.13,Wunderground v.1.13,2013-01-24 19:07:00,
2013-01-24 11:13:00,51.4,49.2,30.13,North,0,0.0,3.0,92,0.00,,,0.13,Wunderground v.1.13,2013-01-24 19:13:00,
2013-01-24 11:19:00,51.6,49.4,30.13,North,0,0.0,3.0,92,0.00,,,0.13,Wunderground v.1.13,2013-01-24 19:19:00,
2013-01-24 11:25:00,51.9,49.6,30.13,North,0,2.0,5.0,92,0.00,,,0.13,Wunderground v.1.13,2013-01-24 19:25:00,
2013-01-24 11:30:00,51.9,49.6,30.12,North,357,3.0,5.0,92,0.00,,,0.13,Wunderground v.1.13,2013-01-24 19:30:00,
2013-01-24 11:36:00,52.3,50.0,30.12,NNW,337,2.0,3.0,92,0.00,,,0.13,Wunderground v.1.13,2013-01-24 19:36:00,
2013-01-24 11:42:00,52.6,50.3,30.12,North,6,3.0,7.0,92,0.00,,,0.13,Wunderground v.1.13,2013-01-24 19:42:00,
2013-01-24 11:48:00,52.5,50.2,30.11,North,8,4.0,5.0,92,0.00,,,0.13,Wunderground v.1.13,2013-01-24 19:48:00,
2013-01-24 11:53:00,52.6,50.3,30.11,NNE,18,6.0,6.0,92,0.00,,,0.13,Wunderground v.1.13,2013-01-24 19:53:00,
2013-01-24 11:59:00,52.8,47.1,30.11,North,354,5.0,5.0,81,0.00,,,0.13,Wunderground v.1.13,2013-01-24 19:59:00,
2013-01-24 12:05:00,52.9,46.9,30.10,North,0,4.0,8.0,80,0.00,,,0.13,Wunderground v.1.13,2013-01-24 20:05:00,
2013-01-24 12:10:00,53.2,47.5,30.10,NNE,13,4.0,6.0,81,0.00,,,0.13,Wunderground v.1.13,2013-01-24 20:10:00,
2013-01-24 12:16:00,53.3,47.3,30.10,NNE,17,3.0,6.0,80,0.00,,,0.13,Wunderground v.1.13,2013-01-24 20:16:00,
2013-01-24 12:22:00,53.3,46.6,30.10,North,356,4.0,4.0,78,0.00,,,0.13,Wunderground v.1.13,2013-01-24 20:22:00,
2013-01-24 12:27:00,53.5,46.8,30.10,NNE,21,4.0,4.0,78,0.00,,,0.13,Wunderground v.1.13,2013-01-24 20:27:00,
2013-01-24 12:33:00,53.3,46.6,30.10,NNE,25,3.0,5.0,78,0.00,,,0.13,Wunderground v.1.13,2013-01-24 20:33:00,
2013-01-24 12:39:00,53.6,47.6,30.10,North,353,2.0,3.0,80,0.00,,,0.13,Wunderground v.1.13,2013-01-24 20:39:00,
2013-01-24 12:45:00,53.9,47.9,30.09,North,359,2.0,4.0,80,0.00,,,0.13,Wunderground v.1.13,2013-01-24 20:45:00,
2013-01-24 12:51:00,53.9,48.2,30.09,North,4,2.0,3.0,81,0.00,,,0.13,Wunderground v.1.13,2013-01-24 20:51:00,
2013-01-24 12:56:00,54.1,48.7,30.09,North,1,2.0,3.0,82,0.00,,,0.13,Wunderground v.1.13,2013-01-24 20:56:00,
2013-01-24 13:02:00,54.1,48.1,30.08,North,359,2.0,2.0,80,0.00,,,0.13,Wunderground v.1.13,2013-01-24 21:02:00,
2013-01-24 13:07:00,54.1,47.7,30.08,North,8,2.0,2.0,79,0.00,,,0.13,Wunderground v.1.13,2013-01-24 21:07:00,
2013-01-24 13:13:00,54.1,47.7,30.08,NNE,25,2.0,3.0,79,0.00,,,0.13,Wunderground v.1.13,2013-01-24 21:13:00,
2013-01-24 13:18:00,54.2,47.5,30.08,NNW,347,2.0,4.0,78,0.00,,,0.13,Wunderground v.1.13,2013-01-24 21:18:00,
2013-01-24 13:24:00,54.4,47.3,30.08,North,0,2.0,5.0,77,0.00,,,0.13,Wunderground v.1.13,2013-01-24 21:24:00,
2013-01-24 13:30:00,54.4,47.0,30.09,North,1,2.0,3.0,76,0.00,,,0.13,Wunderground v.1.13,2013-01-24 21:30:00,
2013-01-24 13:36:00,54.7,46.9,30.09,North,0,1.0,2.0,75,0.00,,,0.13,Wunderground v.1.13,2013-01-24 21:36:00,
2013-01-24 13:42:00,54.7,46.9,30.09,NE,35,2.0,3.0,75,0.00,,,0.13,Wunderground v.1.13,2013-01-24 21:42:00,
2013-01-24 13:48:00,55.0,46.9,30.07,NNE,13,2.0,2.0,74,0.00,,,0.13,Wunderground v.1.13,2013-01-24 21:48:00,
2013-01-24 13:53:00,55.3,47.2,30.07,NE,48,2.0,3.0,74,0.00,,,0.13,Wunderground v.1.13,2013-01-24 21:53:00,
2013-01-24 13:59:00,55.6,47.4,30.07,ENE,59,1.0,1.0,74,0.00,,,0.13,Wunderground v.1.13,2013-01-24 21:59:00,
2013-01-24 14:05:00,55.9,47.4,30.07,ENE,64,1.0,6.0,73,0.00,,,0.13,Wunderground v.1.13,2013-01-24 22:05:00,
2013-01-24 14:10:00,56.2,47.7,30.07,NE,55,2.0,2.0,73,0.00,,,0.13,Wunderground v.1.13,2013-01-24 22:10:00,
2013-01-24 14:16:00,56.3,47.8,30.08,ESE,107,1.0,3.0,73,0.00,,,0.13,Wunderground v.1.13,2013-01-24 22:16:00,
2013-01-24 14:22:00,56.3,47.8,30.08,East,86,2.0,2.0,73,0.00,,,0.13,Wunderground v.1.13,2013-01-24 22:22:00,
2013-01-24 14:28:00,56.5,47.9,30.08,NNE,16,2.0,3.0,73,0.00,,,0.13,Wunderground v.1.13,2013-01-24 22:28:00,
2013-01-24 14:34:00,56.5,47.9,30.07,North,0,3.0,3.0,73,0.00,,,0.13,Wunderground v.1.13,2013-01-24 22:34:00,
2013-01-24 14:39:00,56.0,46.7,30.07,NNE,18,3.0,3.0,71,0.00,,,0.13,Wunderground v.1.13,2013-01-24 22:39:00,
2013-01-24 14:45:00,55.9,46.6,30.08,NNW,340,2.0,6.0,71,0.00,,,0.13,Wunderground v.1.13,2013-01-24 22:45:00,
2013-01-24 14:51:00,55.9,46.6,30.08,NNE,25,3.0,3.0,71,0.00,,,0.13,Wunderground v.1.13,2013-01-24 22:51:00,
2013-01-24 14:57:00,55.7,46.4,30.08,NNE,25,2.0,6.0,71,0.00,,,0.13,Wunderground v.1.13,2013-01-24 22:57:00,
2013-01-24 15:03:00,55.7,45.7,30.07,North,0,3.0,5.0,69,0.00,,,0.13,Wunderground v.1.13,2013-01-24 23:03:00,
2013-01-24 15:08:00,55.7,45.7,30.07,North,359,2.0,3.0,69,0.00,,,0.13,Wunderground v.1.13,2013-01-24 23:08:00,
2013-01-24 15:14:00,55.7,45.7,30.07,NE,37,2.0,3.0,69,0.00,,,0.13,Wunderground v.1.13,2013-01-24 23:14:00,
2013-01-24 15:20:00,55.7,45.7,30.07,North,4,1.0,2.0,69,0.00,,,0.13,Wunderground v.1.13,2013-01-24 23:20:00,
2013-01-24 15:25:00,55.7,45.7,30.07,NE,34,1.0,2.0,69,0.00,,,0.13,Wunderground v.1.13,2013-01-24 23:25:00,
2013-01-24 15:31:00,55.7,45.7,30.07,NNE,21,3.0,6.0,69,0.00,,,0.13,Wunderground v.1.13,2013-01-24 23:31:00,
2013-01-24 15:37:00,55.7,45.7,30.07,North,6,3.0,3.0,69,0.00,,,0.13,Wunderground v.1.13,2013-01-24 23:37:00,
2013-01-24 15:43:00,55.7,45.7,30.07,NNE,16,4.0,4.0,69,0.00,,,0.13,Wunderground v.1.13,2013-01-24 23:43:00,
2013-01-24 15:48:00,55.7,45.7,30.07,NNE,27,3.0,4.0,69,0.00,,,0.13,Wunderground v.1.13,2013-01-24 23:48:00,
2013-01-24 15:54:00,56.0,45.6,30.07,North,7,2.0,5.0,68,0.00,,,0.13,Wunderground v.1.13,2013-01-24 23:54:00,
2013-01-24 16:00:00,56.2,45.8,30.07,North,356,3.0,4.0,68,0.00,,,0.13,Wunderground v.1.13,2013-01-25 00:00:00,
2013-01-24 16:05:00,56.3,45.9,30.07,North,356,2.0,7.0,68,0.00,,,0.13,Wunderground v.1.13,2013-01-25 00:05:00,
2013-01-24 16:11:00,56.3,45.9,30.07,NE,52,1.0,2.0,68,0.00,,,0.13,Wunderground v.1.13,2013-01-25 00:11:00,
2013-01-24 16:16:00,56.3,45.9,30.08,ENE,72,1.0,2.0,68,0.00,,,0.13,Wunderground v.1.13,2013-01-25 00:16:00,
2013-01-24 16:22:00,56.3,46.3,30.08,ESE,110,1.0,2.0,69,0.00,,,0.13,Wunderground v.1.13,2013-01-25 00:22:00,
2013-01-24 16:28:00,56.0,46.4,30.08,ESE,109,2.0,2.0,70,0.00,,,0.13,Wunderground v.1.13,2013-01-25 00:28:00,
2013-01-24 16:34:00,55.9,46.6,30.09,ESE,107,2.0,2.0,71,0.00,,,0.13,Wunderground v.1.13,2013-01-25 00:34:00,
2013-01-24 16:39:00,55.9,46.6,30.09,East,97,1.0,2.0,71,0.00,,,0.13,Wunderground v.1.13,2013-01-25 00:39:00,
2013-01-24 16:45:00,55.7,46.8,30.09,East,89,1.0,2.0,72,0.00,,,0.13,Wunderground v.1.13,2013-01-25 00:45:00,
2013-01-24 16:51:00,55.6,46.7,30.09,East,90,1.0,2.0,72,0.00,,,0.13,Wunderground v.1.13,2013-01-25 00:51:00,
2013-01-24 16:57:00,55.4,46.9,30.09,East,89,1.0,2.0,73,0.00,,,0.13,Wunderground v.1.13,2013-01-25 00:57:00,
2013-01-24 17:03:00,55.3,46.8,30.09,East,85,0.0,6.0,73,0.00,,,0.13,Wunderground v.1.13,2013-01-25 01:03:00,
2013-01-24 17:08:00,55.3,47.2,30.09,ENE,61,0.0,0.0,74,0.00,,,0.13,Wunderground v.1.13,2013-01-25 01:08:00,
2013-01-24 17:14:00,55.1,47.0,30.09,ENE,72,0.0,0.0,74,0.00,,,0.13,Wunderground v.1.13,2013-01-25 01:14:00,
2013-01-24 17:19:00,55.1,47.0,30.10,ENE,75,0.0,0.0,74,0.00,,,0.13,Wunderground v.1.13,2013-01-25 01:19:00,
2013-01-24 17:25:00,55.0,47.2,30.10,ENE,71,0.0,0.0,75,0.00,,,0.13,Wunderground v.1.13,2013-01-25 01:25:00,
2013-01-24 17:31:00,54.8,47.4,30.10,ENE,75,0.0,0.0,76,0.00,,,0.13,Wunderground v.1.13,2013-01-25 01:31:00,
2013-01-24 17:37:00,54.8,47.4,30.10,ENE,75,0.0,0.0,76,0.00,,,0.13,Wunderground v.1.13,2013-01-25 01:37:00,
2013-01-24 17:42:00,54.7,47.6,30.10,ENE,75,0.0,0.0,77,0.00,,,0.13,Wunderground v.1.13,2013-01-25 01:42:00,
2013-01-24 17:48:00,54.7,47.3,30.10,ENE,75,0.0,0.0,76,0.00,,,0.13,Wunderground v.1.13,2013-01-25 01:48:00,
2013-01-24 17:54:00,54.5,47.4,30.10,ENE,76,0.0,0.0,77,0.00,,,0.13,Wunderground v.1.13,2013-01-25 01:54:00,
2013-01-24 18:00:00,54.5,47.4,30.10,ENE,76,0.0,0.0,77,0.00,,,0.13,Wunderground v.1.13,2013-01-25 02:00:00,
2013-01-24 18:05:00,54.4,47.3,30.10,ENE,76,0.0,3.0,77,0.00,,,0.13,Wunderground v.1.13,2013-01-25 02:05:00,
2013-01-24 18:11:00,54.4,47.3,30.10,ENE,76,0.0,0.0,77,0.00,,,0.13,Wunderground v.1.13,2013-01-25 02:11:00,
2013-01-24 18:16:00,54.4,47.3,30.10,ENE,78,0.0,0.0,77,0.00,,,0.13,Wunderground v.1.13,2013-01-25 02:16:00,
2013-01-24 18:22:00,54.4,47.3,30.10,ENE,76,0.0,0.0,77,0.00,,,0.13,Wunderground v.1.13,2013-01-25 02:22:00,
2013-01-24 18:28:00,54.2,47.1,30.10,ENE,76,0.0,0.0,77,0.00,,,0.13,Wunderground v.1.13,2013-01-25 02:28:00,
2013-01-24 18:34:00,54.2,47.5,30.11,ENE,76,0.0,0.0,78,0.00,,,0.13,Wunderground v.1.13,2013-01-25 02:34:00,
2013-01-24 18:39:00,54.2,47.5,30.11,ENE,76,0.0,0.0,78,0.00,,,0.13,Wunderground v.1.13,2013-01-25 02:39:00,
2013-01-24 18:45:00,54.1,47.4,30.11,ENE,71,0.0,1.0,78,0.00,,,0.13,Wunderground v.1.13,2013-01-25 02:45:00,
2013-01-24 18:51:00,54.1,47.4,30.11,ENE,61,1.0,2.0,78,0.00,,,0.13,Wunderground v.1.13,2013-01-25 02:51:00,
2013-01-24 18:57:00,54.1,47.0,30.11,ENE,64,0.0,0.0,77,0.00,,,0.13,Wunderground v.1.13,2013-01-25 02:57:00,
2013-01-24 19:03:00,53.9,47.2,30.11,ENE,62,0.0,1.0,78,0.00,,,0.13,Wunderground v.1.13,2013-01-25 03:03:00,
2013-01-24 19:08:00,53.9,47.2,30.11,ENE,62,0.0,1.0,78,0.00,,,0.13,Wunderground v.1.13,2013-01-25 03:08:00,
2013-01-24 19:13:00,53.9,47.2,30.11,ENE,64,0.0,0.0,78,0.00,,,0.13,Wunderground v.1.13,2013-01-25 03:13:00,
2013-01-24 19:19:00,53.9,47.2,30.11,NE,44,0.0,0.0,78,0.00,,,0.13,Wunderground v.1.13,2013-01-25 03:19:00,
2013-01-24 19:25:00,53.9,46.9,30.11,West,271,0.0,2.0,77,0.00,,,0.13,Wunderground v.1.13,2013-01-25 03:25:00,
2013-01-24 19:31:00,53.9,46.9,30.12,West,263,0.0,0.0,77,0.00,,,0.13,Wunderground v.1.13,2013-01-25 03:31:00,
2013-01-24 19:36:00,53.9,46.5,30.12,West,267,0.0,1.0,76,0.00,,,0.13,Wunderground v.1.13,2013-01-25 03:36:00,
2013-01-24 19:42:00,53.9,46.5,30.12,North,0,1.0,2.0,76,0.00,,,0.13,Wunderground v.1.13,2013-01-25 03:42:00,
2013-01-24 19:48:00,54.1,46.7,30.11,North,1,2.0,3.0,76,0.00,,,0.13,Wunderground v.1.13,2013-01-25 03:48:00,
2013-01-24 19:54:00,54.2,46.8,30.11,North,6,3.0,3.0,76,0.00,,,0.13,Wunderground v.1.13,2013-01-25 03:54:00,
2013-01-24 20:00:00,54.4,46.6,30.11,North,0,3.0,6.0,75,0.00,,,0.13,Wunderground v.1.13,2013-01-25 04:00:00,
2013-01-24 20:05:00,54.4,46.6,30.11,North,4,4.0,4.0,75,0.00,,,0.13,Wunderground v.1.13,2013-01-25 04:05:00,
2013-01-24 20:11:00,54.5,46.0,30.11,North,3,4.0,6.0,73,0.00,,,0.13,Wunderground v.1.13,2013-01-25 04:11:00,
2013-01-24 20:16:00,54.5,46.4,30.11,North,0,4.0,4.0,74,0.00,,,0.13,Wunderground v.1.13,2013-01-25 04:16:00,
2013-01-24 20:22:00,54.4,46.3,30.11,North,349,3.0,4.0,74,0.00,,,0.13,Wunderground v.1.13,2013-01-25 04:22:00,
2013-01-24 20:28:00,54.4,47.0,30.11,NNW,342,2.0,2.0,76,0.00,,,0.13,Wunderground v.1.13,2013-01-25 04:28:00,
2013-01-24 20:34:00,54.2,47.1,30.12,North,0,3.0,5.0,77,0.00,,,0.13,Wunderground v.1.13,2013-01-25 04:34:00,
2013-01-24 20:39:00,54.2,47.1,30.12,North,0,3.0,9.0,77,0.00,,,0.13,Wunderground v.1.13,2013-01-25 04:39:00,
2013-01-24 20:45:00,54.1,47.0,30.12,North,8,4.0,6.0,77,0.00,,,0.13,Wunderground v.1.13,2013-01-25 04:45:00,
2013-01-24 20:51:00,54.1,47.0,30.12,North,7,4.0,6.0,77,0.00,,,0.13,Wunderground v.1.13,2013-01-25 04:51:00,
2013-01-24 20:57:00,54.1,47.0,30.12,North,6,4.0,4.0,77,0.00,,,0.13,Wunderground v.1.13,2013-01-25 04:57:00,
2013-01-24 21:01:00,54.1,46.7,30.12,North,11,5.0,9.0,76,0.00,,,0.13,Wunderground v.1.13,2013-01-25 05:01:00,
2013-01-24 21:04:00,54.1,46.7,30.12,North,8,5.0,8.0,76,0.00,,,0.13,Wunderground v.1.13,2013-01-25 05:04:00,
2013-01-24 21:09:00,53.9,46.5,30.12,North,10,4.0,5.0,76,0.00,,,0.13,Wunderground v.1.13,2013-01-25 05:09:00,
2013-01-24 21:10:00,53.9,46.5,30.12,North,0,4.0,5.0,76,0.00,,,0.13,Wunderground v.1.13,2013-01-25 05:10:00,
2013-01-24 21:16:00,53.9,46.5,30.12,North,4,4.0,8.0,76,0.00,,,0.13,Wunderground v.1.13,2013-01-25 05:16:00,
2013-01-24 21:19:00,53.8,46.4,30.12,North,1,5.0,8.0,76,0.00,,,0.13,Wunderground v.1.13,2013-01-25 05:19:00,
2013-01-24 21:25:00,53.6,46.2,30.12,North,0,6.0,8.0,76,0.00,,,0.13,Wunderground v.1.13,2013-01-25 05:25:00,
2013-01-24 21:31:00,53.5,46.5,30.13,North,10,6.0,6.0,77,0.00,,,0.13,Wunderground v.1.13,2013-01-25 05:31:00,
2013-01-24 21:37:00,53.3,46.3,30.13,North,0,6.0,6.0,77,0.00,,,0.13,Wunderground v.1.13,2013-01-25 05:37:00,
2013-01-24 21:42:00,53.2,46.2,30.13,NNE,13,6.0,6.0,77,0.00,,,0.13,Wunderground v.1.13,2013-01-25 05:42:00,
2013-01-24 21:48:00,53.2,46.5,30.13,North,6,5.0,6.0,78,0.00,,,0.13,Wunderground v.1.13,2013-01-25 05:48:00,
2013-01-24 21:54:00,53.1,46.4,30.13,North,7,4.0,5.0,78,0.00,,,0.13,Wunderground v.1.13,2013-01-25 05:54:00,
2013-01-24 22:00:00,52.9,46.2,30.14,North,10,3.0,3.0,78,0.00,,,0.13,Wunderground v.1.13,2013-01-25 06:00:00,
2013-01-24 22:05:00,52.9,46.6,30.14,North,10,3.0,11.0,79,0.00,,,0.13,Wunderground v.1.13,2013-01-25 06:05:00,
2013-01-24 22:11:00,52.8,46.5,30.14,North,10,4.0,4.0,79,0.00,,,0.13,Wunderground v.1.13,2013-01-25 06:11:00,
2013-01-24 22:17:00,52.8,46.5,30.13,NNE,25,2.0,2.0,79,0.00,,,0.13,Wunderground v.1.13,2013-01-25 06:17:00,
2013-01-24 22:23:00,52.8,46.5,30.13,NE,47,0.0,1.0,79,0.00,,,0.13,Wunderground v.1.13,2013-01-25 06:23:00,
2013-01-24 22:29:00,52.8,46.5,30.13,NE,55,0.0,0.0,79,0.00,,,0.13,Wunderground v.1.13,2013-01-25 06:29:00,
2013-01-24 22:34:00,52.6,46.3,30.13,NE,34,0.0,0.0,79,0.00,,,0.13,Wunderground v.1.13,2013-01-25 06:34:00,
2013-01-24 22:40:00,52.5,45.8,30.13,NNE,18,0.0,5.0,78,0.00,,,0.13,Wunderground v.1.13,2013-01-25 06:40:00,
2013-01-24 22:46:00,52.5,46.2,30.13,NNE,23,1.0,2.0,79,0.00,,,0.13,Wunderground v.1.13,2013-01-25 06:46:00,
2013-01-24 22:52:00,52.3,46.0,30.13,NNE,27,1.0,1.0,79,0.00,,,0.13,Wunderground v.1.13,2013-01-25 06:52:00,
2013-01-24 22:57:00,52.3,46.0,30.13,North,6,2.0,3.0,79,0.00,,,0.13,Wunderground v.1.13,2013-01-25 06:57:00,
2013-01-24 23:03:00,52.3,46.3,30.14,NNE,30,2.0,7.0,80,0.00,,,0.13,Wunderground v.1.13,2013-01-25 07:03:00,
2013-01-24 23:09:00,52.3,46.3,30.14,North,8,2.0,3.0,80,0.00,,,0.13,Wunderground v.1.13,2013-01-25 07:09:00,
2013-01-24 23:14:00,52.3,46.0,30.13,North,6,4.0,7.0,79,0.00,,,0.13,Wunderground v.1.13,2013-01-25 07:14:00,
2013-01-24 23:20:00,52.3,46.3,30.13,North,3,5.0,8.0,80,0.00,,,0.13,Wunderground v.1.13,2013-01-25 07:20:00,
2013-01-24 23:26:00,52.2,46.2,30.13,North,359,4.0,6.0,80,0.00,,,0.13,Wunderground v.1.13,2013-01-25 07:26:00,
2013-01-24 23:32:00,52.2,46.2,30.14,North,0,4.0,4.0,80,0.00,,,0.13,Wunderground v.1.13,2013-01-25 07:32:00,
2013-01-24 23:38:00,52.0,46.3,30.14,NE,34,4.0,5.0,81,0.00,,,0.13,Wunderground v.1.13,2013-01-25 07:38:00,
2013-01-24 23:44:00,52.0,46.0,30.14,North,7,3.0,3.0,80,0.00,,,0.13,Wunderground v.1.13,2013-01-25 07:44:00,
2013-01-24 23:49:00,52.0,46.0,30.14,NE,35,2.0,2.0,80,0.00,,,0.13,Wunderground v.1.13,2013-01-25 07:49:00,
2013-01-24 23:55:00,52.2,46.2,30.14,NNE,17,1.0,5.0,80,0.00,,,0.13,Wunderground v.1.13,2013-01-25 07:55:00,